sensor_id;sensor_type;location;lat;lon;timestamp;temperature;humidity
32107;DHT22;18622;51.998;10.440;2022-08-21T05:02:00;16.10;94.30
32107;DHT22;18622;51.998;10.440;2022-08-21T05:04:29;16.10;94.20
32107;DHT22;18622;51.998;10.440;2022-08-21T05:06:56;16.10;94.20
32107;DHT22;18622;51.998;10.440;2022-08-21T05:09:24;16.10;94.10
32107;DHT22;18622;51.998;10.440;2022-08-21T05:11:51;16.10;94.00
32107;DHT22;18622;51.998;10.440;2022-08-21T05:14:18;16.20;94.10
32107;DHT22;18622;51.998;10.440;2022-08-21T05:16:45;16.30;94.20
32107;DHT22;18622;51.998;10.440;2022-08-21T05:19:12;16.40;94.30
32107;DHT22;18622;51.998;10.440;2022-08-21T05:21:42;16.40;94.30
32107;DHT22;18622;51.998;10.440;2022-08-21T05:24:07;16.50;94.30
32107;DHT22;18622;51.998;10.440;2022-08-21T05:26:34;16.60;94.10
32107;DHT22;18622;51.998;10.440;2022-08-21T05:29:02;16.70;94.40
32107;DHT22;18622;51.998;10.440;2022-08-21T05:31:29;16.70;94.10
32107;DHT22;18622;51.998;10.440;2022-08-21T05:33:56;16.80;94.10
32107;DHT22;18622;51.998;10.440;2022-08-21T05:36:23;16.90;94.10
32107;DHT22;18622;51.998;10.440;2022-08-21T05:38:50;17.00;94.10
32107;DHT22;18622;51.998;10.440;2022-08-21T05:41:17;17.00;93.90
32107;DHT22;18622;51.998;10.440;2022-08-21T05:43:44;17.10;93.90
32107;DHT22;18622;51.998;10.440;2022-08-21T05:46:10;17.20;93.80
32107;DHT22;18622;51.998;10.440;2022-08-21T05:48:37;17.40;93.80
32107;DHT22;18622;51.998;10.440;2022-08-21T05:51:05;17.50;94.00
32107;DHT22;18622;51.998;10.440;2022-08-21T05:53:32;17.70;93.60
32107;DHT22;18622;51.998;10.440;2022-08-21T05:55:59;18.10;93.40
32107;DHT22;18622;51.998;10.440;2022-08-21T05:58:28;18.30;93.30
32107;DHT22;18622;51.998;10.440;2022-08-21T06:00:54;18.70;93.20
32107;DHT22;18622;51.998;10.440;2022-08-21T06:03:22;18.90;92.90
32107;DHT22;18622;51.998;10.440;2022-08-21T06:05:50;19.10;92.40
32107;DHT22;18622;51.998;10.440;2022-08-21T06:08:18;19.20;92.10
32107;DHT22;18622;51.998;10.440;2022-08-21T06:10:46;19.20;92.00
32107;DHT22;18622;51.998;10.440;2022-08-21T06:13:14;19.20;91.70
32107;DHT22;18622;51.998;10.440;2022-08-21T06:15:41;19.30;91.40
32107;DHT22;18622;51.998;10.440;2022-08-21T06:18:08;19.30;91.20
32107;DHT22;18622;51.998;10.440;2022-08-21T06:20:35;19.40;91.40
32107;DHT22;18622;51.998;10.440;2022-08-21T06:23:03;19.40;91.10
32107;DHT22;18622;51.998;10.440;2022-08-21T06:25:30;19.50;90.90
32107;DHT22;18622;51.998;10.440;2022-08-21T06:28:01;19.60;90.90
32107;DHT22;18622;51.998;10.440;2022-08-21T06:30:28;19.70;90.80
32107;DHT22;18622;51.998;10.440;2022-08-21T06:32:54;19.80;90.70
32107;DHT22;18622;51.998;10.440;2022-08-21T06:35:21;19.90;90.60
32107;DHT22;18622;51.998;10.440;2022-08-21T06:37:50;20.00;90.50
32107;DHT22;18622;51.998;10.440;2022-08-21T06:40:17;20.10;90.40
32107;DHT22;18622;51.998;10.440;2022-08-21T06:42:44;20.10;90.40
32107;DHT22;18622;51.998;10.440;2022-08-21T06:45:10;20.20;90.50
32107;DHT22;18622;51.998;10.440;2022-08-21T06:47:37;20.30;90.30
32107;DHT22;18622;51.998;10.440;2022-08-21T06:50:04;20.40;90.20
32107;DHT22;18622;51.998;10.440;2022-08-21T06:52:34;20.60;90.00
32107;DHT22;18622;51.998;10.440;2022-08-21T06:55:00;20.80;89.70
32107;DHT22;18622;51.998;10.440;2022-08-21T06:57:27;20.90;86.00
32107;DHT22;18622;51.998;10.440;2022-08-21T06:59:54;21.10;84.70
32107;DHT22;18622;51.998;10.440;2022-08-21T07:02:21;21.20;84.40
32107;DHT22;18622;51.998;10.440;2022-08-21T07:04:48;21.40;84.40
32107;DHT22;18622;51.998;10.440;2022-08-21T07:07:15;21.60;83.70
32107;DHT22;18622;51.998;10.440;2022-08-21T07:09:41;21.70;83.80
32107;DHT22;18622;51.998;10.440;2022-08-21T07:12:08;21.90;83.00
32107;DHT22;18622;51.998;10.440;2022-08-21T07:14:36;22.00;83.80
32107;DHT22;18622;51.998;10.440;2022-08-21T07:17:03;22.20;82.60
32107;DHT22;18622;51.998;10.440;2022-08-21T07:19:29;22.30;82.60
32107;DHT22;18622;51.998;10.440;2022-08-21T07:21:57;22.40;80.90
32107;DHT22;18622;51.998;10.440;2022-08-21T07:24:25;22.50;80.80
32107;DHT22;18622;51.998;10.440;2022-08-21T07:26:51;22.70;81.40
32107;DHT22;18622;51.998;10.440;2022-08-21T07:29:18;22.80;79.70
32107;DHT22;18622;51.998;10.440;2022-08-21T07:31:45;22.90;79.40
32107;DHT22;18622;51.998;10.440;2022-08-21T07:34:12;23.10;78.30
32107;DHT22;18622;51.998;10.440;2022-08-21T07:36:39;23.30;78.20
32107;DHT22;18622;51.998;10.440;2022-08-21T07:39:06;23.40;77.80
32107;DHT22;18622;51.998;10.440;2022-08-21T07:41:33;23.60;77.70
32107;DHT22;18622;51.998;10.440;2022-08-21T07:44:01;23.70;75.80
32107;DHT22;18622;51.998;10.440;2022-08-21T07:46:28;23.80;76.80
32107;DHT22;18622;51.998;10.440;2022-08-21T07:48:56;23.80;74.80
32107;DHT22;18622;51.998;10.440;2022-08-21T07:51:24;23.90;73.80
32107;DHT22;18622;51.998;10.440;2022-08-21T07:53:52;24.00;74.10
32107;DHT22;18622;51.998;10.440;2022-08-21T07:56:19;24.10;73.20
32107;DHT22;18622;51.998;10.440;2022-08-21T07:58:46;24.20;70.90
32107;DHT22;18622;51.998;10.440;2022-08-21T08:01:13;24.30;69.90
32107;DHT22;18622;51.998;10.440;2022-08-21T08:03:40;24.30;70.40
32107;DHT22;18622;51.998;10.440;2022-08-21T08:06:07;24.40;71.30
32107;DHT22;18622;51.998;10.440;2022-08-21T08:08:36;24.60;70.80
32107;DHT22;18622;51.998;10.440;2022-08-21T08:11:03;24.80;70.40
32107;DHT22;18622;51.998;10.440;2022-08-21T08:13:30;25.00;69.00
32107;DHT22;18622;51.998;10.440;2022-08-21T08:15:57;25.00;69.30
32107;DHT22;18622;51.998;10.440;2022-08-21T08:18:23;25.20;69.30
32107;DHT22;18622;51.998;10.440;2022-08-21T08:20:50;25.30;68.80
32107;DHT22;18622;51.998;10.440;2022-08-21T08:23:17;25.40;67.60
32107;DHT22;18622;51.998;10.440;2022-08-21T08:25:44;25.50;66.20
32107;DHT22;18622;51.998;10.440;2022-08-21T08:28:11;25.70;67.10
32107;DHT22;18622;51.998;10.440;2022-08-21T08:30:38;25.80;65.70
32107;DHT22;18622;51.998;10.440;2022-08-21T08:33:05;26.20;65.50
32107;DHT22;18622;51.998;10.440;2022-08-21T08:35:31;26.60;65.20
32107;DHT22;18622;51.998;10.440;2022-08-21T08:37:58;26.80;63.50
32107;DHT22;18622;51.998;10.440;2022-08-21T08:40:29;26.90;60.90
32107;DHT22;18622;51.998;10.440;2022-08-21T08:42:54;27.10;58.20
32107;DHT22;18622;51.998;10.440;2022-08-21T08:45:21;27.20;58.60
32107;DHT22;18622;51.998;10.440;2022-08-21T08:47:56;27.30;56.80
32107;DHT22;18622;51.998;10.440;2022-08-21T08:50:38;27.50;59.10
32107;DHT22;18622;51.998;10.440;2022-08-21T08:53:07;27.80;59.90
32107;DHT22;18622;51.998;10.440;2022-08-21T08:55:35;28.20;59.70
32107;DHT22;18622;51.998;10.440;2022-08-21T08:58:01;28.50;58.40
32107;DHT22;18622;51.998;10.440;2022-08-21T09:00:29;28.70;56.90
32107;DHT22;18622;51.998;10.440;2022-08-21T09:02:57;29.00;57.10
32107;DHT22;18622;51.998;10.440;2022-08-21T09:11:01;29.20;55.30
32107;DHT22;18622;51.998;10.440;2022-08-21T09:13:41;29.00;54.90
32107;DHT22;18622;51.998;10.440;2022-08-21T09:23:58;28.20;53.50
32107;DHT22;18622;51.998;10.440;2022-08-21T09:26:24;28.10;53.60
32107;DHT22;18622;51.998;10.440;2022-08-21T09:28:54;28.00;53.90
32107;DHT22;18622;51.998;10.440;2022-08-21T09:31:22;27.90;54.40
32107;DHT22;18622;51.998;10.440;2022-08-21T09:33:49;27.90;53.90
32107;DHT22;18622;51.998;10.440;2022-08-21T09:36:27;27.90;54.60
32107;DHT22;18622;51.998;10.440;2022-08-21T09:38:54;27.80;54.00
32107;DHT22;18622;51.998;10.440;2022-08-21T09:41:26;27.90;54.50
32107;DHT22;18622;51.998;10.440;2022-08-21T09:43:54;28.30;55.00
32107;DHT22;18622;51.998;10.440;2022-08-21T09:46:22;29.10;54.00
32107;DHT22;18622;51.998;10.440;2022-08-21T09:48:50;29.80;53.20
32107;DHT22;18622;51.998;10.440;2022-08-21T09:51:23;30.30;50.40
32107;DHT22;18622;51.998;10.440;2022-08-21T09:53:49;30.40;49.80
32107;DHT22;18622;51.998;10.440;2022-08-21T09:56:31;30.70;49.70
32107;DHT22;18622;51.998;10.440;2022-08-21T09:59:15;31.50;50.10
32107;DHT22;18622;51.998;10.440;2022-08-21T10:01:47;32.50;47.00
32107;DHT22;18622;51.998;10.440;2022-08-21T10:04:10;33.00;44.60
32107;DHT22;18622;51.998;10.440;2022-08-21T10:06:38;33.10;43.30
32107;DHT22;18622;51.998;10.440;2022-08-21T10:09:13;33.00;43.40
32107;DHT22;18622;51.998;10.440;2022-08-21T10:11:39;33.10;43.10
32107;DHT22;18622;51.998;10.440;2022-08-21T10:16:52;33.00;41.40
32107;DHT22;18622;51.998;10.440;2022-08-21T10:24:32;33.10;39.30
32107;DHT22;18622;51.998;10.440;2022-08-21T10:32:12;33.40;37.40
32107;DHT22;18622;51.998;10.440;2022-08-21T10:34:40;33.20;38.00
32107;DHT22;18622;51.998;10.440;2022-08-21T10:37:17;33.20;37.80
32107;DHT22;18622;51.998;10.440;2022-08-21T10:42:35;33.60;36.40
32107;DHT22;18622;51.998;10.440;2022-08-21T10:45:14;33.70;37.10
32107;DHT22;18622;51.998;10.440;2022-08-21T10:47:58;34.00;37.00
32107;DHT22;18622;51.998;10.440;2022-08-21T10:55:25;34.80;33.60
32107;DHT22;18622;51.998;10.440;2022-08-21T11:00:21;35.10;33.90
32107;DHT22;18622;51.998;10.440;2022-08-21T11:02:51;35.50;33.80
32107;DHT22;18622;51.998;10.440;2022-08-21T11:05:19;35.80;32.60
32107;DHT22;18622;51.998;10.440;2022-08-21T11:07:51;36.00;32.20
32107;DHT22;18622;51.998;10.440;2022-08-21T11:12:50;36.20;31.50
32107;DHT22;18622;51.998;10.440;2022-08-21T11:23:25;36.30;30.40
32107;DHT22;18622;51.998;10.440;2022-08-21T11:25:55;36.10;29.80
32107;DHT22;18622;51.998;10.440;2022-08-21T11:28:26;36.00;30.20
32107;DHT22;18622;51.998;10.440;2022-08-21T11:31:12;36.10;30.80
32107;DHT22;18622;51.998;10.440;2022-08-21T11:36:34;36.50;30.80
32107;DHT22;18622;51.998;10.440;2022-08-21T11:44:25;37.50;30.40
32107;DHT22;18622;51.998;10.440;2022-08-21T11:54:59;38.80;30.10
32107;DHT22;18622;51.998;10.440;2022-08-21T11:57:29;38.90;29.60
32107;DHT22;18622;51.998;10.440;2022-08-21T12:02:31;39.10;29.60
32107;DHT22;18622;51.998;10.440;2022-08-21T12:05:04;39.60;30.00
32107;DHT22;18622;51.998;10.440;2022-08-21T12:07:34;40.20;29.50
32107;DHT22;18622;51.998;10.440;2022-08-21T12:10:00;40.40;29.00
32107;DHT22;18622;51.998;10.440;2022-08-21T12:12:33;40.30;29.10
32107;DHT22;18622;51.998;10.440;2022-08-21T12:17:35;39.70;29.30
32107;DHT22;18622;51.998;10.440;2022-08-21T12:20:16;39.50;29.50
32107;DHT22;18622;51.998;10.440;2022-08-21T12:22:38;39.60;29.20
32107;DHT22;18622;51.998;10.440;2022-08-21T12:25:16;39.70;28.40
32107;DHT22;18622;51.998;10.440;2022-08-21T12:27:46;39.80;28.40
32107;DHT22;18622;51.998;10.440;2022-08-21T12:32:56;41.10;27.80
32107;DHT22;18622;51.998;10.440;2022-08-21T12:35:26;41.90;27.90
32107;DHT22;18622;51.998;10.440;2022-08-21T12:37:59;42.30;27.40
32107;DHT22;18622;51.998;10.440;2022-08-21T12:40:33;42.20;27.30
32107;DHT22;18622;51.998;10.440;2022-08-21T12:42:57;41.90;27.00
32107;DHT22;18622;51.998;10.440;2022-08-21T12:46:07;41.60;26.90
32107;DHT22;18622;51.998;10.440;2022-08-21T12:47:57;41.40;26.90
32107;DHT22;18622;51.998;10.440;2022-08-21T12:53:09;41.40;27.20
32107;DHT22;18622;51.998;10.440;2022-08-21T12:55:37;41.60;27.30
32107;DHT22;18622;51.998;10.440;2022-08-21T12:58:04;42.20;28.10
32107;DHT22;18622;51.998;10.440;2022-08-21T13:00:31;42.20;27.50
32107;DHT22;18622;51.998;10.440;2022-08-21T13:02:58;41.80;28.00
32107;DHT22;18622;51.998;10.440;2022-08-21T13:05:28;42.00;27.80
32107;DHT22;18622;51.998;10.440;2022-08-21T13:07:54;42.60;27.60
32107;DHT22;18622;51.998;10.440;2022-08-21T13:10:22;43.30;26.90
32107;DHT22;18622;51.998;10.440;2022-08-21T13:12:49;43.40;27.20
32107;DHT22;18622;51.998;10.440;2022-08-21T13:15:22;43.80;27.00
32107;DHT22;18622;51.998;10.440;2022-08-21T13:17:46;43.80;26.60
32107;DHT22;18622;51.998;10.440;2022-08-21T13:20:24;43.80;26.00
32107;DHT22;18622;51.998;10.440;2022-08-21T13:22:51;43.80;25.80
32107;DHT22;18622;51.998;10.440;2022-08-21T13:25:19;43.40;26.00
32107;DHT22;18622;51.998;10.440;2022-08-21T13:28:08;43.20;25.90
32107;DHT22;18622;51.998;10.440;2022-08-21T13:30:19;43.40;25.40
32107;DHT22;18622;51.998;10.440;2022-08-21T13:32:47;43.30;26.20
32107;DHT22;18622;51.998;10.440;2022-08-21T13:35:16;43.40;26.10
32107;DHT22;18622;51.998;10.440;2022-08-21T13:37:43;43.50;25.50
32107;DHT22;18622;51.998;10.440;2022-08-21T13:40:17;43.30;25.50
32107;DHT22;18622;51.998;10.440;2022-08-21T13:42:43;43.20;25.80
32107;DHT22;18622;51.998;10.440;2022-08-21T13:45:17;42.70;25.50
32107;DHT22;18622;51.998;10.440;2022-08-21T13:47:39;41.00;26.20
32107;DHT22;18622;51.998;10.440;2022-08-21T13:50:07;39.10;27.20
32107;DHT22;18622;51.998;10.440;2022-08-21T13:52:34;38.00;28.40
32107;DHT22;18622;51.998;10.440;2022-08-21T13:55:12;38.60;28.30
32107;DHT22;18622;51.998;10.440;2022-08-21T13:57:38;39.60;27.70
32107;DHT22;18622;51.998;10.440;2022-08-21T14:00:18;40.90;27.00
32107;DHT22;18622;51.998;10.440;2022-08-21T14:02:50;41.90;26.70
32107;DHT22;18622;51.998;10.440;2022-08-21T14:05:19;42.70;26.10
32107;DHT22;18622;51.998;10.440;2022-08-21T14:07:43;43.20;25.70
32107;DHT22;18622;51.998;10.440;2022-08-21T14:10:21;43.20;25.30
32107;DHT22;18622;51.998;10.440;2022-08-21T14:12:54;43.10;25.20
32107;DHT22;18622;51.998;10.440;2022-08-21T14:15:26;42.80;25.40
32107;DHT22;18622;51.998;10.440;2022-08-21T14:17:54;42.00;25.40
32107;DHT22;18622;51.998;10.440;2022-08-21T14:20:27;41.20;25.60
32107;DHT22;18622;51.998;10.440;2022-08-21T14:22:53;40.90;25.90
32107;DHT22;18622;51.998;10.440;2022-08-21T14:27:56;41.00;25.80
32107;DHT22;18622;51.998;10.440;2022-08-21T14:30:28;40.90;26.00
32107;DHT22;18622;51.998;10.440;2022-08-21T14:32:55;40.70;26.10
32107;DHT22;18622;51.998;10.440;2022-08-21T14:35:23;39.60;26.60
32107;DHT22;18622;51.998;10.440;2022-08-21T14:37:50;38.50;27.30
32107;DHT22;18622;51.998;10.440;2022-08-21T14:40:18;37.40;27.70
32107;DHT22;18622;51.998;10.440;2022-08-21T14:42:45;36.30;28.30
32107;DHT22;18622;51.998;10.440;2022-08-21T14:45:16;35.60;29.60
32107;DHT22;18622;51.998;10.440;2022-08-21T14:47:43;35.50;29.30
32107;DHT22;18622;51.998;10.440;2022-08-21T14:50:11;35.20;29.90
32107;DHT22;18622;51.998;10.440;2022-08-21T14:52:41;34.60;29.60
32107;DHT22;18622;51.998;10.440;2022-08-21T14:55:09;34.00;30.00
32107;DHT22;18622;51.998;10.440;2022-08-21T14:57:37;33.50;30.10
32107;DHT22;18622;51.998;10.440;2022-08-21T15:00:05;32.80;31.20
32107;DHT22;18622;51.998;10.440;2022-08-21T15:02:33;32.40;31.10
32107;DHT22;18622;51.998;10.440;2022-08-21T15:05:00;32.10;31.30
32107;DHT22;18622;51.998;10.440;2022-08-21T15:07:27;31.90;32.20
32107;DHT22;18622;51.998;10.440;2022-08-21T15:09:54;31.90;32.40
32107;DHT22;18622;51.998;10.440;2022-08-21T15:12:20;31.90;32.20
32107;DHT22;18622;51.998;10.440;2022-08-21T15:14:47;31.80;32.50
32107;DHT22;18622;51.998;10.440;2022-08-21T15:17:14;31.80;32.70
32107;DHT22;18622;51.998;10.440;2022-08-21T15:19:41;31.90;32.80
32107;DHT22;18622;51.998;10.440;2022-08-21T15:22:08;32.00;33.00
32107;DHT22;18622;51.998;10.440;2022-08-21T15:24:35;32.10;32.70
32107;DHT22;18622;51.998;10.440;2022-08-21T15:27:02;32.10;32.70
32107;DHT22;18622;51.998;10.440;2022-08-21T15:29:30;31.90;32.90
32107;DHT22;18622;51.998;10.440;2022-08-21T15:32:02;31.90;32.90
32107;DHT22;18622;51.998;10.440;2022-08-21T15:34:29;31.80;33.10
32107;DHT22;18622;51.998;10.440;2022-08-21T15:36:57;31.70;33.70
32107;DHT22;18622;51.998;10.440;2022-08-21T15:39:24;31.90;33.60
32107;DHT22;18622;51.998;10.440;2022-08-21T15:41:52;32.90;33.40
32107;DHT22;18622;51.998;10.440;2022-08-21T15:44:18;34.40;31.00
32107;DHT22;18622;51.998;10.440;2022-08-21T15:46:46;35.70;30.50
32107;DHT22;18622;51.998;10.440;2022-08-21T15:49:13;36.40;30.00
32107;DHT22;18622;51.998;10.440;2022-08-21T15:51:40;37.10;29.70
32107;DHT22;18622;51.998;10.440;2022-08-21T15:54:06;37.30;28.80
32107;DHT22;18622;51.998;10.440;2022-08-21T15:56:35;37.30;29.20
32107;DHT22;18622;51.998;10.440;2022-08-21T15:59:05;37.10;28.50
32107;DHT22;18622;51.998;10.440;2022-08-21T16:01:33;36.40;29.10
32107;DHT22;18622;51.998;10.440;2022-08-21T16:04:01;35.50;29.00
32107;DHT22;18622;51.998;10.440;2022-08-21T16:06:28;34.60;29.50
32107;DHT22;18622;51.998;10.440;2022-08-21T16:08:55;33.90;30.00
32107;DHT22;18622;51.998;10.440;2022-08-21T16:11:22;33.80;30.70
32107;DHT22;18622;51.998;10.440;2022-08-21T16:13:49;34.20;30.50
32107;DHT22;18622;51.998;10.440;2022-08-21T16:16:20;34.20;30.50
32107;DHT22;18622;51.998;10.440;2022-08-21T16:18:48;34.10;30.60
32107;DHT22;18622;51.998;10.440;2022-08-21T16:21:16;33.90;30.60
32107;DHT22;18622;51.998;10.440;2022-08-21T16:23:43;33.90;30.80
32107;DHT22;18622;51.998;10.440;2022-08-21T16:26:11;34.20;30.00
32107;DHT22;18622;51.998;10.440;2022-08-21T16:28:38;34.40;30.10
32107;DHT22;18622;51.998;10.440;2022-08-21T16:31:05;34.30;30.10
32107;DHT22;18622;51.998;10.440;2022-08-21T16:33:39;34.10;30.70
32107;DHT22;18622;51.998;10.440;2022-08-21T16:36:02;34.50;30.60
32107;DHT22;18622;51.998;10.440;2022-08-21T16:38:30;35.00;29.90
32107;DHT22;18622;51.998;10.440;2022-08-21T16:40:59;35.50;29.80
32107;DHT22;18622;51.998;10.440;2022-08-21T16:43:27;35.90;29.60
32107;DHT22;18622;51.998;10.440;2022-08-21T16:45:55;35.90;29.90
32107;DHT22;18622;51.998;10.440;2022-08-21T16:48:22;35.80;29.50
32107;DHT22;18622;51.998;10.440;2022-08-21T16:50:49;35.70;29.40
32107;DHT22;18622;51.998;10.440;2022-08-21T16:53:16;35.00;29.80
32107;DHT22;18622;51.998;10.440;2022-08-21T16:55:43;34.00;30.10
32107;DHT22;18622;51.998;10.440;2022-08-21T16:58:12;32.90;30.90
32107;DHT22;18622;51.998;10.440;2022-08-21T17:00:38;32.10;31.60
32107;DHT22;18622;51.998;10.440;2022-08-21T17:03:05;31.50;32.10
32107;DHT22;18622;51.998;10.440;2022-08-21T17:05:31;31.00;32.90
32107;DHT22;18622;51.998;10.440;2022-08-21T17:07:58;30.40;33.30
32107;DHT22;18622;51.998;10.440;2022-08-21T17:10:25;30.00;33.80
32107;DHT22;18622;51.998;10.440;2022-08-21T17:12:53;29.50;34.50
32107;DHT22;18622;51.998;10.440;2022-08-21T17:15:22;29.20;35.30
32107;DHT22;18622;51.998;10.440;2022-08-21T17:17:49;28.90;35.70
32107;DHT22;18622;51.998;10.440;2022-08-21T17:20:16;28.60;36.00
32107;DHT22;18622;51.998;10.440;2022-08-21T17:22:44;28.30;36.30
32107;DHT22;18622;51.998;10.440;2022-08-21T17:25:10;28.10;37.00
32107;DHT22;18622;51.998;10.440;2022-08-21T17:27:37;27.80;36.60
32107;DHT22;18622;51.998;10.440;2022-08-21T17:30:05;27.60;37.80
32107;DHT22;18622;51.998;10.440;2022-08-21T17:32:35;27.40;37.60
32107;DHT22;18622;51.998;10.440;2022-08-21T17:35:03;27.10;37.80
32107;DHT22;18622;51.998;10.440;2022-08-21T17:37:30;27.00;38.40
32107;DHT22;18622;51.998;10.440;2022-08-21T17:39:57;26.80;38.10
32107;DHT22;18622;51.998;10.440;2022-08-21T17:42:24;26.60;38.50
32107;DHT22;18622;51.998;10.440;2022-08-21T17:44:51;26.40;38.70
32107;DHT22;18622;51.998;10.440;2022-08-21T17:47:18;26.20;39.00
32107;DHT22;18622;51.998;10.440;2022-08-21T17:49:45;25.90;39.50
32107;DHT22;18622;51.998;10.440;2022-08-21T17:52:12;25.70;40.10
32107;DHT22;18622;51.998;10.440;2022-08-21T17:54:39;25.50;40.40
32107;DHT22;18622;51.998;10.440;2022-08-21T17:57:06;25.30;41.30
32107;DHT22;18622;51.998;10.440;2022-08-21T17:59:34;25.10;41.50
32107;DHT22;18622;51.998;10.440;2022-08-21T18:02:01;24.90;42.40
32107;DHT22;18622;51.998;10.440;2022-08-21T18:04:29;24.60;42.60
32107;DHT22;18622;51.998;10.440;2022-08-21T18:06:56;24.40;43.10
32107;DHT22;18622;51.998;10.440;2022-08-21T18:09:23;24.20;43.70
32107;DHT22;18622;51.998;10.440;2022-08-21T18:11:51;24.00;44.20
32107;DHT22;18622;51.998;10.440;2022-08-21T18:14:18;23.80;44.90
32107;DHT22;18622;51.998;10.440;2022-08-21T18:16:47;23.50;45.80
32107;DHT22;18622;51.998;10.440;2022-08-21T18:19:15;23.30;46.10
32107;DHT22;18622;51.998;10.440;2022-08-21T18:21:43;23.20;46.50
32107;DHT22;18622;51.998;10.440;2022-08-21T18:24:10;23.00;46.60
32107;DHT22;18622;51.998;10.440;2022-08-21T18:26:37;22.80;47.10
32107;DHT22;18622;51.998;10.440;2022-08-21T18:29:06;22.60;47.60
32107;DHT22;18622;51.998;10.440;2022-08-21T18:31:34;22.50;48.10
32107;DHT22;18622;51.998;10.440;2022-08-21T18:34:02;22.30;48.70
32107;DHT22;18622;51.998;10.440;2022-08-21T18:36:29;22.10;49.20
32107;DHT22;18622;51.998;10.440;2022-08-21T18:38:56;22.00;49.70
32107;DHT22;18622;51.998;10.440;2022-08-21T18:41:23;21.80;50.10
32107;DHT22;18622;51.998;10.440;2022-08-21T18:43:50;21.60;50.40
32107;DHT22;18622;51.998;10.440;2022-08-21T18:46:17;21.50;50.70
32107;DHT22;18622;51.998;10.440;2022-08-21T18:48:44;21.40;51.20
32107;DHT22;18622;51.998;10.440;2022-08-21T18:51:11;21.30;51.70
32107;DHT22;18622;51.998;10.440;2022-08-21T18:53:38;21.20;51.70
32107;DHT22;18622;51.998;10.440;2022-08-21T18:56:05;21.10;51.90
32107;DHT22;18622;51.998;10.440;2022-08-21T18:58:33;21.00;52.50
32107;DHT22;18622;51.998;10.440;2022-08-21T19:01:00;20.90;52.60
32107;DHT22;18622;51.998;10.440;2022-08-21T19:03:27;20.80;52.90
32107;DHT22;18622;51.998;10.440;2022-08-21T19:05:54;20.70;53.70
32107;DHT22;18622;51.998;10.440;2022-08-21T19:08:22;20.60;53.10
32107;DHT22;18622;51.998;10.440;2022-08-21T19:10:50;20.50;53.80
32107;DHT22;18622;51.998;10.440;2022-08-21T19:13:18;20.50;53.40
32107;DHT22;18622;51.998;10.440;2022-08-21T19:15:45;20.50;54.10
32107;DHT22;18622;51.998;10.440;2022-08-21T19:18:15;20.40;54.20
32107;DHT22;18622;51.998;10.440;2022-08-21T19:20:43;20.40;54.50
32107;DHT22;18622;51.998;10.440;2022-08-21T19:23:10;20.30;55.10
32107;DHT22;18622;51.998;10.440;2022-08-21T19:25:37;20.30;54.80
32107;DHT22;18622;51.998;10.440;2022-08-21T19:28:06;20.30;55.60
32107;DHT22;18622;51.998;10.440;2022-08-21T19:30:38;20.20;55.30
32107;DHT22;18622;51.998;10.440;2022-08-21T19:33:06;20.20;55.70
32107;DHT22;18622;51.998;10.440;2022-08-21T19:35:33;20.10;56.00
32107;DHT22;18622;51.998;10.440;2022-08-21T19:38:00;20.10;56.10
32107;DHT22;18622;51.998;10.440;2022-08-21T19:40:27;20.10;56.60
32107;DHT22;18622;51.998;10.440;2022-08-21T19:42:53;20.00;56.60
32107;DHT22;18622;51.998;10.440;2022-08-21T19:45:20;20.00;56.90
32107;DHT22;18622;51.998;10.440;2022-08-21T19:47:47;19.90;57.60
32107;DHT22;18622;51.998;10.440;2022-08-21T19:50:15;19.80;58.10
32107;DHT22;18622;51.998;10.440;2022-08-21T19:52:42;19.80;57.90
32107;DHT22;18622;51.998;10.440;2022-08-21T19:55:09;19.70;58.70
32107;DHT22;18622;51.998;10.440;2022-08-21T19:57:37;19.70;58.40
32107;DHT22;18622;51.998;10.440;2022-08-21T20:00:09;19.60;58.60
32107;DHT22;18622;51.998;10.440;2022-08-21T20:02:34;19.50;58.60
32107;DHT22;18622;51.998;10.440;2022-08-21T20:05:03;19.50;59.10
32107;DHT22;18622;51.998;10.440;2022-08-21T20:07:30;19.40;59.70
32107;DHT22;18622;51.998;10.440;2022-08-21T20:09:58;19.40;59.60
32107;DHT22;18622;51.998;10.440;2022-08-21T20:12:25;19.30;60.10
32107;DHT22;18622;51.998;10.440;2022-08-21T20:14:52;19.30;60.10
32107;DHT22;18622;51.998;10.440;2022-08-21T20:17:19;19.30;60.40
32107;DHT22;18622;51.998;10.440;2022-08-21T20:19:46;19.20;60.40
32107;DHT22;18622;51.998;10.440;2022-08-21T20:22:14;19.20;60.60
32107;DHT22;18622;51.998;10.440;2022-08-21T20:24:41;19.10;60.90
32107;DHT22;18622;51.998;10.440;2022-08-21T20:27:09;19.10;60.90
32107;DHT22;18622;51.998;10.440;2022-08-21T20:29:36;19.00;61.10
32107;DHT22;18622;51.998;10.440;2022-08-21T20:32:04;19.00;61.30
32107;DHT22;18622;51.998;10.440;2022-08-21T20:34:32;18.90;61.90
32107;DHT22;18622;51.998;10.440;2022-08-21T20:36:59;18.90;62.20
32107;DHT22;18622;51.998;10.440;2022-08-21T20:39:26;18.80;61.90
32107;DHT22;18622;51.998;10.440;2022-08-21T20:41:53;18.80;62.60
32107;DHT22;18622;51.998;10.440;2022-08-21T20:44:21;18.70;63.00
32107;DHT22;18622;51.998;10.440;2022-08-21T20:46:47;18.60;62.70
32107;DHT22;18622;51.998;10.440;2022-08-21T20:49:18;18.60;63.30
32107;DHT22;18622;51.998;10.440;2022-08-21T20:51:43;18.60;63.50
32107;DHT22;18622;51.998;10.440;2022-08-21T20:54:19;18.50;64.00
32107;DHT22;18622;51.998;10.440;2022-08-21T20:56:45;18.50;63.90
32107;DHT22;18622;51.998;10.440;2022-08-21T20:59:13;18.40;64.10
32107;DHT22;18622;51.998;10.440;2022-08-21T21:01:40;18.40;64.00
32107;DHT22;18622;51.998;10.440;2022-08-21T21:06:47;18.30;64.60
32107;DHT22;18622;51.998;10.440;2022-08-21T21:09:16;18.30;64.90
32107;DHT22;18622;51.998;10.440;2022-08-21T21:11:46;18.20;65.50
32107;DHT22;18622;51.998;10.440;2022-08-21T21:14:23;18.20;65.70
32107;DHT22;18622;51.998;10.440;2022-08-21T21:16:51;18.10;65.60
32107;DHT22;18622;51.998;10.440;2022-08-21T21:19:29;18.20;66.40
32107;DHT22;18622;51.998;10.440;2022-08-21T21:22:00;18.10;66.80
32107;DHT22;18622;51.998;10.440;2022-08-21T21:24:38;18.10;66.60
32107;DHT22;18622;51.998;10.440;2022-08-21T21:26:57;18.00;66.70
32107;DHT22;18622;51.998;10.440;2022-08-21T21:29:45;18.00;67.40
32107;DHT22;18622;51.998;10.440;2022-08-21T21:31:56;18.00;67.60
32107;DHT22;18622;51.998;10.440;2022-08-21T21:34:24;18.00;68.00
32107;DHT22;18622;51.998;10.440;2022-08-21T21:39:29;17.90;68.00
32107;DHT22;18622;51.998;10.440;2022-08-21T21:44:28;17.80;68.70
